Aviation Digital Data Service (ADDS)

Output produced by METARs form (2056 UTC 29 May 2017)
found at http://www.aviationweather.gov/adds/metars/
 
OAHR 291655Z 03016G27KT 9000 NSC 27/12 Q1016 RMK BLU
TAF OAHR 291700Z 2918/3018 02015G25KT 9000 NSC 
     TEMPO 2918/2922 03025G35KT 4500 BLDU 
     BECMG 2922/2924 03012KT CAVOK 
     BECMG 3004/3006 02022KT 8000 NSC 
     TEMPO 3010/3016 03025G35KT 4500 BLDU
       
OAJL 291955Z 28012G20KT 9999 CLR 36/M06 A2955 RMK AO2A SLP950 T03611062
TAF AMD OAJL 291905Z 2919/3022 27010G20KT 9999 SKC QNH2946INS 
     TEMPO 2919/2923 30020G30KT 520003 
     BECMG 3000/3001 28010G15KT 8000 HZ SKC QNH2948INS 
     BECMG 3008/3009 27012G18KT 9999 NSW SKC QNH2956INS 
     BECMG 3010/3011 27015G25KT 6000 BLDU SKC 510003 QNH2947INS 
     TEMPO 3012/3017 26025G35KT 3200 BLDU 530003 
     BECMG 3017/3018 27012G18KT 8000 HZ SKC QNH2951INS TX44/3010Z TN34/3001Z
       
OAKB 292050Z 33012KT CAVOK 23/M07 Q1016 NOSIG RMK BLU BLU
TAF OAKB 291705Z 2918/3018 33010KT CAVOK 
     TEMPO 2918/2922 36008G18KT 
     BECMG 2922/3000 VRB02KT 
     BECMG 3003/3006 33010G20KT 
     BECMG 3008/3011 35025G45KT 
     BECMG 3016/3018 33012KT
       
OAKN 291955Z 12005KT 9000 HZ CLR 26/M09 A2974 RMK AO2A SLP998 Q1007 DA5601
TAF OAKN 291500Z 2915/3021 30009KT 9999 SKC QNH2970INS 
     BECMG 3007/3008 29010G20KT 8000 BLDU SKC QNH2973INS 
     BECMG 3010/3011 27015G25KT 8000 BLDU SKC QNH2970INS 
     BECMG 3014/3015 28010G15KT 9000 HZ SKC QNH2973INS 
     BECMG 3017/3018 29009KT 9999 NSW SKC QNH2974INS TX37/3011Z TN20/2923Z
       
OAMS 292050Z 23017KT 9000 FEW150 29/06 Q1013 BLU+ WHT TEMPO YLO
TAF OAMS 291705Z 2918/3018 23015G25KT 6000 NSW FEW120 SCT180 
     TEMPO 2918/3003 26020G30KT 3000 BLDU BKN120 BKN180 
     BECMG 3003/3005 27015G28KT 6000 NSW FEW120 SCT180 
     BECMG 3014/3016 23010G20KT 9999 NSW SCT250